createdAt,value
2018-06-02T00:00:30.622Z,19.21
2018-06-02T00:02:58.209Z,19.22
2018-06-02T00:05:26.613Z,19.19
2018-06-02T00:07:54.198Z,19.39
2018-06-02T00:10:21.916Z,19.33
2018-06-02T00:12:49.506Z,19.39
2018-06-02T00:15:17.205Z,19.42
2018-06-02T00:17:44.795Z,19.46
2018-06-02T00:20:12.381Z,19.34
2018-06-02T00:22:39.965Z,19.25
2018-06-02T00:25:07.650Z,19.36
2018-06-02T00:27:36.061Z,19.25
2018-06-02T00:30:05.239Z,19.18
2018-06-02T00:32:32.872Z,19.32
2018-06-02T00:35:00.456Z,19.23
2018-06-02T00:37:28.076Z,19.30
2018-06-02T00:39:55.662Z,19.23
2018-06-02T00:42:23.296Z,19.32
2018-06-02T00:44:50.876Z,19.23
2018-06-02T00:47:18.491Z,19.43
2018-06-02T00:49:46.835Z,19.38
2018-06-02T00:52:14.429Z,19.43
2018-06-02T00:54:53.896Z,19.36
2018-06-02T00:57:21.484Z,19.17
2018-06-02T00:59:49.121Z,19.08
2018-06-02T01:02:16.715Z,19.02
2018-06-02T01:04:44.393Z,18.98
2018-06-02T01:07:12.688Z,18.99
2018-06-02T01:09:41.253Z,18.93
2018-06-02T01:12:08.917Z,18.92
2018-06-02T01:14:36.506Z,18.94
2018-06-02T01:17:05.065Z,18.98
2018-06-02T01:19:33.595Z,18.96
2018-06-02T01:22:02.032Z,18.89
2018-06-02T01:24:30.515Z,18.85
2018-06-02T01:26:59.022Z,18.92
2018-06-02T01:29:26.609Z,18.91
2018-06-02T01:31:54.453Z,18.99
2018-06-02T01:34:23.029Z,19.00
2018-06-02T01:36:51.497Z,18.96
2018-06-02T01:39:20.042Z,18.94
2018-06-02T01:41:47.985Z,18.91
2018-06-02T01:44:16.338Z,18.93
2018-06-02T01:46:43.931Z,18.93
2018-06-02T01:49:12.364Z,18.92
2018-06-02T01:51:40.737Z,18.98
2018-06-02T01:54:09.177Z,18.99
2018-06-02T01:56:37.709Z,19.10
2018-06-02T01:59:06.172Z,19.03
2018-06-02T02:01:33.852Z,18.98
2018-06-02T02:04:01.513Z,18.96
2018-06-02T02:06:29.159Z,18.95
2018-06-02T02:08:56.746Z,18.97
2018-06-02T02:11:24.324Z,18.95
2018-06-02T02:13:52.715Z,18.98
2018-06-02T02:16:20.774Z,18.98
2018-06-02T02:18:49.285Z,18.98
2018-06-02T02:21:16.873Z,19.01
2018-06-02T02:23:44.485Z,19.04
2018-06-02T02:26:12.075Z,19.01
2018-06-02T02:28:39.717Z,19.01
2018-06-02T02:31:07.305Z,19.01
2018-06-02T02:33:34.909Z,18.99
2018-06-02T02:36:02.502Z,19.00
2018-06-02T02:38:30.952Z,19.02
2018-06-02T02:40:59.469Z,19.03
2018-06-02T02:43:27.862Z,19.01
2018-06-02T02:45:56.521Z,19.00
2018-06-02T02:48:24.110Z,19.09
2018-06-02T02:50:52.449Z,19.07
2018-06-02T02:53:20.033Z,19.07
2018-06-02T02:55:48.521Z,19.14
2018-06-02T02:58:16.813Z,19.13
2018-06-02T03:00:44.393Z,19.14
2018-06-02T03:03:11.978Z,19.17
2018-06-02T03:05:41.311Z,19.16
2018-06-02T03:08:09.860Z,19.17
2018-06-02T03:10:38.225Z,19.20
2018-06-02T03:13:06.592Z,19.28
2018-06-02T03:15:34.177Z,19.33
2018-06-02T03:18:02.691Z,19.33
2018-06-02T03:20:30.337Z,19.39
2018-06-02T03:22:58.876Z,19.40
2018-06-02T03:25:27.260Z,19.34
2018-06-02T03:27:55.758Z,19.31
2018-06-02T03:30:24.130Z,19.31
2018-06-02T03:32:51.771Z,19.31
2018-06-02T03:35:20.285Z,19.31
2018-06-02T03:37:47.897Z,19.28
2018-06-02T03:40:16.450Z,19.27
2018-06-02T03:42:45.025Z,19.30
2018-06-02T03:45:12.622Z,19.31
2018-06-02T03:47:41.125Z,19.34
2018-06-02T03:50:09.494Z,19.40
2018-06-02T03:52:37.981Z,19.40
2018-06-02T03:55:05.564Z,19.38
2018-06-02T03:57:34.068Z,19.42
2018-06-02T04:00:02.465Z,19.37
2018-06-02T04:02:30.830Z,19.38
2018-06-02T04:04:58.460Z,19.39
2018-06-02T04:07:26.735Z,19.39
2018-06-02T04:09:55.013Z,19.37
2018-06-02T04:12:23.374Z,19.37
2018-06-02T04:14:51.785Z,19.36
2018-06-02T04:17:19.374Z,19.38
2018-06-02T04:19:47.883Z,19.42
2018-06-02T04:22:15.501Z,19.43
2018-06-02T04:24:44.037Z,19.42
2018-06-02T04:27:11.661Z,19.43
2018-06-02T04:29:39.253Z,19.51
2018-06-02T04:32:07.712Z,19.54
2018-06-02T04:34:35.296Z,19.55
2018-06-02T04:37:03.088Z,19.61
2018-06-02T04:39:30.672Z,19.55
2018-06-02T04:41:59.166Z,19.54
2018-06-02T04:44:26.761Z,19.61
2018-06-02T04:46:54.492Z,19.60
2018-06-02T04:49:22.081Z,19.56
2018-06-02T04:51:50.638Z,19.56
2018-06-02T04:54:18.226Z,19.55
2018-06-02T04:56:46.658Z,19.65
2018-06-02T04:59:14.289Z,19.54
2018-06-02T05:01:41.877Z,19.55
2018-06-02T05:04:10.416Z,19.59
2018-06-02T05:06:38.003Z,19.57
2018-06-02T05:09:06.412Z,19.59
2018-06-02T05:11:34.784Z,19.55
2018-06-02T05:14:02.381Z,19.47
2018-06-02T05:16:29.965Z,19.60
2018-06-02T05:18:58.340Z,19.55
2018-06-02T05:21:25.931Z,19.57
2018-06-02T05:23:54.324Z,19.61
2018-06-02T05:26:22.087Z,19.51
2018-06-02T05:28:49.664Z,19.57
2018-06-02T05:31:17.247Z,19.62
2018-06-02T05:33:44.931Z,19.59
2018-06-02T05:36:12.565Z,19.56
2018-06-02T05:38:40.146Z,19.59
2018-06-02T05:41:07.729Z,19.61
2018-06-02T05:43:35.373Z,19.68
2018-06-02T05:46:02.981Z,19.62
2018-06-02T05:48:30.579Z,19.66
2018-06-02T05:50:58.212Z,19.85
2018-06-02T05:53:25.801Z,19.89
2018-06-02T05:55:54.201Z,19.87
2018-06-02T05:58:22.694Z,19.86
2018-06-02T06:00:51.063Z,19.83
2018-06-02T06:03:19.349Z,20.03
2018-06-02T06:05:47.717Z,19.92
2018-06-02T06:08:16.085Z,19.96
2018-06-02T06:10:44.581Z,19.93
2018-06-02T06:13:12.245Z,19.92
2018-06-02T06:15:40.938Z,19.99
2018-06-02T06:18:08.525Z,20.01
2018-06-02T06:20:36.159Z,20.04
2018-06-02T06:23:03.780Z,20.06
2018-06-02T06:25:31.366Z,20.05
2018-06-02T06:27:58.991Z,20.28
2018-06-02T06:30:26.569Z,20.26
2018-06-02T06:32:54.173Z,20.34
2018-06-02T06:35:21.812Z,20.50
2018-06-02T06:37:49.665Z,20.42
2018-06-02T06:40:17.251Z,20.53
2018-06-02T06:42:45.583Z,20.54
2018-06-02T06:45:13.181Z,20.57
2018-06-02T06:47:41.677Z,20.80
2018-06-02T06:50:09.268Z,20.82
2018-06-02T06:52:36.897Z,20.85
2018-06-02T06:55:04.597Z,20.70
2018-06-02T06:57:33.037Z,20.90
2018-06-02T07:00:00.740Z,20.84
2018-06-02T07:02:28.318Z,21.06
2018-06-02T07:04:56.827Z,21.10
2018-06-02T07:07:25.198Z,21.11
2018-06-02T07:09:53.716Z,21.25
2018-06-02T07:12:21.357Z,21.30
2018-06-02T07:14:53.836Z,21.19
2018-06-02T07:17:28.252Z,21.32
2018-06-02T07:20:00.427Z,21.38
2018-06-02T07:22:28.054Z,21.53
2018-06-02T07:24:55.795Z,21.59
2018-06-02T07:27:24.109Z,21.78
2018-06-02T07:29:52.513Z,21.81
2018-06-02T07:32:20.813Z,21.89
2018-06-02T07:34:48.441Z,21.87
2018-06-02T07:37:16.024Z,22.05
2018-06-02T07:39:43.698Z,21.85
2018-06-02T07:42:12.065Z,21.95
2018-06-02T07:44:39.736Z,21.93
2018-06-02T07:47:08.233Z,21.96
2018-06-02T07:49:36.429Z,22.26
2018-06-02T07:52:04.722Z,22.30
2018-06-02T07:54:32.345Z,22.51
2018-06-02T07:57:00.865Z,22.59
2018-06-02T07:59:28.449Z,22.38
2018-06-02T08:01:56.077Z,22.55
2018-06-02T08:04:23.670Z,22.38
2018-06-02T08:06:52.174Z,22.42
2018-06-02T08:09:19.764Z,22.55
2018-06-02T08:11:47.384Z,22.27
2018-06-02T08:14:15.015Z,22.41
2018-06-02T08:16:43.306Z,22.59
2018-06-02T08:19:11.737Z,22.62
2018-06-02T08:21:40.241Z,22.50
2018-06-02T08:24:08.692Z,22.49
2018-06-02T08:26:37.046Z,22.42
2018-06-02T08:29:05.516Z,22.44
2018-06-02T08:31:33.097Z,22.41
2018-06-02T08:34:00.719Z,22.32
2018-06-02T08:36:28.312Z,22.39
2018-06-02T08:38:55.972Z,22.46
2018-06-02T08:41:24.452Z,22.74
2018-06-02T08:43:52.069Z,22.77
2018-06-02T08:46:19.652Z,22.79
2018-06-02T08:48:47.242Z,23.16
2018-06-02T08:51:14.859Z,23.41
2018-06-02T08:53:42.530Z,23.73
2018-06-02T08:56:10.109Z,23.88
2018-06-02T08:58:37.692Z,24.00
2018-06-02T09:01:05.380Z,24.18
2018-06-02T09:03:33.021Z,24.50
2018-06-02T09:06:00.608Z,24.62
2018-06-02T09:08:28.202Z,24.84
2018-06-02T09:10:56.746Z,25.07
2018-06-02T09:13:24.328Z,25.04
2018-06-02T09:15:51.954Z,24.90
2018-06-02T09:18:19.538Z,24.87
2018-06-02T09:20:47.126Z,24.91
2018-06-02T09:23:15.433Z,24.96
2018-06-02T09:25:44.022Z,24.81
2018-06-02T09:28:11.624Z,24.83
2018-06-02T09:30:39.209Z,24.68
2018-06-02T09:33:06.789Z,25.11
2018-06-02T09:35:34.369Z,25.00
2018-06-02T09:38:02.005Z,24.81
2018-06-02T09:40:29.592Z,25.13
2018-06-02T09:42:57.210Z,25.40
2018-06-02T09:45:24.876Z,25.37
2018-06-02T09:47:52.469Z,25.59
2018-06-02T09:50:20.052Z,25.43
2018-06-02T09:52:47.631Z,25.80
2018-06-02T09:55:15.213Z,26.04
2018-06-02T09:57:42.812Z,26.17
2018-06-02T10:00:11.325Z,26.01
2018-06-02T10:02:39.017Z,25.81
2018-06-02T10:05:06.689Z,25.81
2018-06-02T10:07:34.424Z,25.91
2018-06-02T10:10:02.165Z,25.86
2018-06-02T10:12:29.749Z,25.43
2018-06-02T10:14:57.329Z,25.37
2018-06-02T10:17:24.997Z,25.64
2018-06-02T10:19:52.577Z,25.54
2018-06-02T10:22:20.222Z,25.49
2018-06-02T10:24:47.813Z,25.08
2018-06-02T10:27:15.395Z,25.09
2018-06-02T10:29:43.852Z,24.95
2018-06-02T10:32:11.443Z,24.97
2018-06-02T10:34:39.034Z,24.88
2018-06-02T10:37:06.664Z,25.20
2018-06-02T10:39:34.306Z,25.28
2018-06-02T10:42:03.105Z,25.47
2018-06-02T10:44:30.735Z,25.75
2018-06-02T10:46:59.193Z,26.00
2018-06-02T10:49:26.833Z,26.17
2018-06-02T10:51:54.432Z,26.30
2018-06-02T10:54:22.017Z,26.70
2018-06-02T10:56:50.343Z,27.27
2018-06-02T10:59:18.210Z,27.07
2018-06-02T11:01:45.873Z,27.59
2018-06-02T11:04:13.484Z,28.14
2018-06-02T11:06:41.068Z,28.21
2018-06-02T11:09:08.697Z,28.59
2018-06-02T11:11:36.264Z,28.43
2018-06-02T11:14:03.886Z,28.84
2018-06-02T11:16:31.470Z,28.96
2018-06-02T11:18:59.140Z,29.28
2018-06-02T11:21:26.724Z,29.34
2018-06-02T11:23:54.316Z,29.39
2018-06-02T11:26:21.958Z,29.28
2018-06-02T11:28:49.544Z,29.39
2018-06-02T11:31:17.131Z,29.37
2018-06-02T11:33:44.813Z,28.74
2018-06-02T11:36:12.421Z,28.64
2018-06-02T11:38:40.013Z,28.66
2018-06-02T11:41:07.589Z,28.61
2018-06-02T11:43:35.194Z,28.66
2018-06-02T11:46:02.783Z,28.34
2018-06-02T11:48:30.417Z,28.44
2018-06-02T11:50:58.100Z,28.13
2018-06-02T11:53:25.680Z,28.24
2018-06-02T11:55:53.277Z,27.89
2018-06-02T11:58:20.858Z,27.38
2018-06-02T12:00:48.442Z,27.11
2018-06-02T12:03:16.016Z,27.03
2018-06-02T12:05:43.892Z,26.68
2018-06-02T12:08:12.402Z,26.86
2018-06-02T12:10:40.899Z,26.91
2018-06-02T12:13:08.554Z,26.97
2018-06-02T12:15:36.136Z,27.14
2018-06-02T12:18:04.092Z,27.12
2018-06-02T12:20:31.768Z,27.14
2018-06-02T12:22:59.328Z,27.23
2018-06-02T12:25:26.914Z,27.35
2018-06-02T12:27:54.553Z,27.35
2018-06-02T12:30:22.141Z,27.64
2018-06-02T12:32:49.730Z,27.88
2018-06-02T12:35:17.660Z,28.23
2018-06-02T12:37:45.289Z,28.17
2018-06-02T12:40:13.001Z,28.09
2018-06-02T12:42:40.569Z,27.91
2018-06-02T12:45:08.153Z,27.99
2018-06-02T12:47:35.745Z,27.59
2018-06-02T12:50:03.394Z,27.65
2018-06-02T12:52:30.981Z,27.45
2018-06-02T12:54:58.567Z,27.43
2018-06-02T12:57:26.177Z,27.21
2018-06-02T12:59:53.773Z,26.98
2018-06-02T13:02:21.353Z,26.70
2018-06-02T13:04:48.947Z,26.18
2018-06-02T13:07:16.536Z,25.79
2018-06-02T13:09:44.119Z,25.76
2018-06-02T13:12:12.462Z,25.53
2018-06-02T13:14:40.176Z,25.29
2018-06-02T13:17:07.825Z,24.87
2018-06-02T13:19:35.416Z,24.75
2018-06-02T13:22:02.998Z,24.67
2018-06-02T13:24:30.580Z,24.48
2018-06-02T13:26:58.253Z,24.33
2018-06-02T13:29:25.878Z,24.15
2018-06-02T13:31:53.468Z,24.13
2018-06-02T13:34:21.061Z,23.91
2018-06-02T13:36:48.649Z,23.71
2018-06-02T13:39:16.283Z,23.55
2018-06-02T13:41:43.945Z,23.59
2018-06-02T13:44:11.537Z,23.31
2018-06-02T13:46:39.121Z,23.36
2018-06-02T13:49:06.794Z,23.34
2018-06-02T13:51:34.382Z,23.37
2018-06-02T13:54:01.967Z,23.25
2018-06-02T13:56:30.385Z,23.14
2018-06-02T13:58:58.062Z,23.16
2018-06-02T14:01:25.677Z,23.27
2018-06-02T14:03:54.069Z,23.27
2018-06-02T14:06:21.669Z,23.30
2018-06-02T14:08:49.257Z,23.29
2018-06-02T14:11:17.733Z,23.34
2018-06-02T14:13:46.131Z,23.43
2018-06-02T14:16:13.756Z,23.39
2018-06-02T14:18:41.418Z,23.42
2018-06-02T14:21:09.733Z,23.36
2018-06-02T14:23:37.312Z,23.27
2018-06-02T14:26:04.903Z,23.09
2018-06-02T14:28:32.485Z,23.08
2018-06-02T14:31:00.865Z,23.12
2018-06-02T14:33:29.252Z,23.11
2018-06-02T14:35:57.615Z,23.00
2018-06-02T14:38:26.134Z,23.06
2018-06-02T14:40:54.577Z,23.12
2018-06-02T14:43:22.241Z,23.08
2018-06-02T14:45:50.009Z,23.02
2018-06-02T14:48:17.590Z,23.08
2018-06-02T14:50:45.231Z,23.07
2018-06-02T14:53:12.817Z,23.23
2018-06-02T14:55:41.020Z,23.13
2018-06-02T14:58:08.601Z,22.94
2018-06-02T15:00:36.185Z,23.11
2018-06-02T15:03:03.779Z,23.01
2018-06-02T15:05:31.400Z,23.02
2018-06-02T15:07:58.985Z,22.95
2018-06-02T15:10:26.637Z,23.06
2018-06-02T15:12:54.220Z,23.24
2018-06-02T15:15:21.845Z,23.28
2018-06-02T15:17:49.590Z,23.30
2018-06-02T15:20:17.185Z,23.31
2018-06-02T15:22:45.769Z,23.61
2018-06-02T15:25:14.361Z,23.62
2018-06-02T15:27:42.893Z,23.67
2018-06-02T15:30:10.474Z,23.82
2018-06-02T15:32:39.126Z,23.88
2018-06-02T15:35:12.483Z,23.99
2018-06-02T15:37:40.361Z,24.14
2018-06-02T15:40:09.201Z,24.25
2018-06-02T15:42:37.074Z,24.57
2018-06-02T15:45:05.834Z,24.84
2018-06-02T15:47:33.461Z,24.99
2018-06-02T15:50:01.045Z,25.22
2018-06-02T15:52:28.629Z,25.32
2018-06-02T15:54:57.988Z,25.50
2018-06-02T15:57:25.576Z,25.34
2018-06-02T15:59:53.210Z,25.10
2018-06-02T16:02:20.873Z,25.07
2018-06-02T16:04:49.615Z,24.89
2018-06-02T16:07:17.279Z,25.07
2018-06-02T16:09:44.893Z,25.11
2018-06-02T16:12:12.534Z,25.37
2018-06-02T16:14:40.158Z,25.41
2018-06-02T16:17:08.712Z,25.29
2018-06-02T16:19:36.304Z,25.20
2018-06-02T16:22:03.893Z,25.63
2018-06-02T16:24:31.473Z,25.81
2018-06-02T16:26:59.098Z,26.22
2018-06-02T16:29:27.471Z,26.18
2018-06-02T16:31:55.097Z,25.96
2018-06-02T16:34:23.501Z,26.28
2018-06-02T16:36:51.085Z,26.32
2018-06-02T16:39:18.669Z,25.71
2018-06-02T16:41:46.289Z,25.55
2018-06-02T16:44:13.869Z,25.63
2018-06-02T16:46:41.506Z,25.32
2018-06-02T16:49:09.090Z,25.37
2018-06-02T16:51:37.515Z,25.16
2018-06-02T16:54:05.789Z,25.34
2018-06-02T16:56:33.377Z,25.19
2018-06-02T16:59:00.966Z,25.03
2018-06-02T17:01:28.554Z,24.65
2018-06-02T17:03:56.138Z,24.77
2018-06-02T17:06:23.768Z,24.87
2018-06-02T17:08:51.463Z,24.67
2018-06-02T17:11:19.121Z,24.65
2018-06-02T17:13:46.718Z,24.55
2018-06-02T17:16:14.402Z,24.59
2018-06-02T17:18:42.015Z,24.55
2018-06-02T17:21:09.593Z,24.36
2018-06-02T17:23:37.189Z,24.19
2018-06-02T17:26:04.784Z,24.08
2018-06-02T17:28:32.373Z,23.81
2018-06-02T17:30:59.956Z,23.71
2018-06-02T17:33:27.581Z,23.42
2018-06-02T17:35:55.245Z,23.13
2018-06-02T17:38:23.726Z,23.08
2018-06-02T17:40:52.309Z,23.02
2018-06-02T17:43:20.890Z,22.82
2018-06-02T17:45:49.329Z,22.61
2018-06-02T17:48:16.959Z,22.62
2018-06-02T17:50:45.339Z,22.41
2018-06-02T17:53:12.987Z,22.38
2018-06-02T17:55:40.682Z,22.32
2018-06-02T17:58:08.314Z,22.37
2018-06-02T18:00:35.974Z,22.54
2018-06-02T18:03:03.558Z,22.42
2018-06-02T18:05:31.195Z,22.33
2018-06-02T18:07:58.853Z,22.25
2018-06-02T18:10:26.435Z,22.12
2018-06-02T18:12:54.029Z,22.08
2018-06-02T18:15:21.649Z,22.00
2018-06-02T18:17:49.234Z,21.97
2018-06-02T18:20:16.815Z,21.91
2018-06-02T18:22:45.322Z,22.00
2018-06-02T18:25:13.748Z,21.96
2018-06-02T18:27:42.604Z,21.97
2018-06-02T18:30:10.188Z,21.89
2018-06-02T18:32:37.773Z,21.79
2018-06-02T18:35:05.406Z,21.72
2018-06-02T18:37:32.997Z,21.60
2018-06-02T18:40:00.631Z,21.56
2018-06-02T18:42:29.043Z,21.50
2018-06-02T18:44:56.634Z,21.58
2018-06-02T18:47:24.214Z,21.45
2018-06-02T18:49:51.898Z,21.43
2018-06-02T18:52:19.493Z,21.39
2018-06-02T18:54:48.495Z,21.42
2018-06-02T18:57:16.391Z,21.25
2018-06-02T18:59:44.181Z,21.18
2018-06-02T19:02:12.423Z,21.12
2018-06-02T19:04:40.197Z,21.09
2018-06-02T19:07:07.782Z,20.93
2018-06-02T19:09:35.485Z,20.79
2018-06-02T19:12:03.151Z,20.80
2018-06-02T19:14:30.741Z,20.81
2018-06-02T19:16:58.330Z,20.76
2018-06-02T19:19:25.952Z,20.85
2018-06-02T19:21:54.282Z,20.73
2018-06-02T19:24:21.943Z,20.69
2018-06-02T19:26:50.422Z,20.65
2018-06-02T19:29:18.072Z,20.62
2018-06-02T19:31:45.751Z,20.55
2018-06-02T19:34:13.404Z,20.60
2018-06-02T19:36:41.078Z,20.46
2018-06-02T19:39:08.742Z,20.63
2018-06-02T19:41:36.399Z,20.54
2018-06-02T19:44:04.012Z,20.45
2018-06-02T19:46:32.527Z,20.67
2018-06-02T19:49:00.114Z,20.56
2018-06-02T19:51:27.697Z,20.44
2018-06-02T19:53:55.301Z,20.55
2018-06-02T19:56:23.152Z,20.59
2018-06-02T19:58:51.689Z,20.57
2018-06-02T20:01:19.537Z,20.59
2018-06-02T20:03:47.998Z,20.45
2018-06-02T20:06:16.780Z,20.45
2018-06-02T20:08:44.722Z,20.41
2018-06-02T20:11:12.515Z,20.44
2018-06-02T20:13:40.107Z,20.31
2018-06-02T20:16:07.731Z,20.20
2018-06-02T20:18:35.310Z,20.12
2018-06-02T20:21:02.942Z,20.00
2018-06-02T20:23:30.533Z,20.05
2018-06-02T20:25:58.149Z,20.07
2018-06-02T20:28:25.965Z,19.97
2018-06-02T20:30:53.550Z,19.93
2018-06-02T20:33:21.695Z,19.96
2018-06-02T20:35:50.015Z,19.91
2018-06-02T20:38:18.386Z,19.82
2018-06-02T20:40:47.293Z,19.83
2018-06-02T20:43:14.889Z,19.90
2018-06-02T20:45:44.457Z,19.95
2018-06-02T20:48:12.105Z,20.01
2018-06-02T20:50:39.770Z,20.13
2018-06-02T20:53:07.464Z,20.14
2018-06-02T20:55:35.832Z,20.13
2018-06-02T20:58:04.646Z,20.18
2018-06-02T21:00:32.432Z,20.28
2018-06-02T21:03:00.092Z,20.26
2018-06-02T21:05:28.278Z,20.23
2018-06-02T21:07:57.797Z,20.24
2018-06-02T21:10:25.390Z,20.31
2018-06-02T21:12:53.938Z,20.31
2018-06-02T21:15:21.627Z,20.29
2018-06-02T21:17:49.289Z,20.30
2018-06-02T21:20:18.236Z,20.32
2018-06-02T21:22:47.930Z,20.33
2018-06-02T21:25:15.557Z,20.40
2018-06-02T21:27:43.734Z,20.37
2018-06-02T21:30:12.317Z,20.36
2018-06-02T21:32:42.122Z,20.40
2018-06-02T21:35:13.212Z,20.37
2018-06-02T21:37:42.122Z,20.33
2018-06-02T21:40:11.023Z,20.32
2018-06-02T21:42:39.893Z,20.38
2018-06-02T21:45:10.995Z,20.32
2018-06-02T21:47:38.621Z,20.32
2018-06-02T21:50:07.019Z,20.33
2018-06-02T21:52:35.560Z,20.31
2018-06-02T21:55:03.947Z,20.28
2018-06-02T21:57:31.569Z,20.39
2018-06-02T21:59:59.146Z,20.41
2018-06-02T22:02:26.766Z,20.37
2018-06-02T22:04:54.361Z,20.30
2018-06-02T22:07:22.004Z,20.31
2018-06-02T22:09:49.665Z,20.31
2018-06-02T22:12:18.051Z,20.32
2018-06-02T22:14:46.680Z,20.36
2018-06-02T22:17:14.257Z,20.30
2018-06-02T22:19:42.014Z,20.27
2018-06-02T22:22:09.593Z,20.21
2018-06-02T22:24:37.255Z,20.22
2018-06-02T22:27:06.480Z,20.14
2018-06-02T22:29:34.847Z,20.11
2018-06-02T22:32:03.615Z,20.12
2018-06-02T22:34:31.313Z,20.07
2018-06-02T22:37:01.186Z,20.04
2018-06-02T22:39:29.712Z,20.03
2018-06-02T22:41:57.293Z,20.02
2018-06-02T22:44:24.884Z,20.20
2018-06-02T22:46:52.462Z,20.15
2018-06-02T22:49:20.076Z,20.23
2018-06-02T22:51:57.442Z,20.14
2018-06-02T22:54:25.083Z,20.20
2018-06-02T22:56:53.573Z,20.16
2018-06-02T22:59:21.949Z,20.11
2018-06-02T23:01:49.534Z,20.11
2018-06-02T23:04:17.233Z,20.11
2018-06-02T23:06:44.815Z,20.13
2018-06-02T23:09:12.393Z,20.11
2018-06-02T23:11:41.106Z,20.07
2018-06-02T23:14:10.432Z,20.12
2018-06-02T23:16:38.025Z,20.08
2018-06-02T23:19:07.096Z,20.09
2018-06-02T23:21:35.885Z,20.08
2018-06-02T23:24:04.915Z,20.05
2018-06-02T23:26:33.594Z,20.03
2018-06-02T23:29:02.787Z,20.03
2018-06-02T23:31:31.620Z,19.99
2018-06-02T23:33:59.356Z,20.11
2018-06-02T23:36:28.248Z,20.13
2018-06-02T23:38:56.430Z,20.04
2018-06-02T23:41:24.091Z,19.99
2018-06-02T23:43:51.681Z,20.01
2018-06-02T23:46:20.157Z,19.97
2018-06-02T23:48:48.530Z,19.92
2018-06-02T23:51:17.088Z,19.89
2018-06-02T23:53:45.376Z,19.83
2018-06-02T23:56:13.039Z,19.80
2018-06-02T23:58:41.555Z,19.84
